createdAt,value
2022-10-08T00:03:17.197Z,72.69
2022-10-08T00:08:20.121Z,72.87
2022-10-08T00:13:23.342Z,72.92
2022-10-08T00:18:30.119Z,73.12
2022-10-08T00:23:34.245Z,73.46
2022-10-08T00:28:38.750Z,73.42
2022-10-08T00:33:43.205Z,73.60
2022-10-08T00:38:45.849Z,73.68
2022-10-08T00:43:50.745Z,73.80
2022-10-08T00:48:56.847Z,73.91
2022-10-08T00:53:59.957Z,73.94
2022-10-08T00:59:03.485Z,74.46
2022-10-08T01:04:08.131Z,74.24
2022-10-08T01:09:18.861Z,74.51
2022-10-08T01:14:32.409Z,74.66
2022-10-08T01:20:02.201Z,74.76
2022-10-08T01:25:31.747Z,74.99
2022-10-08T01:30:36.777Z,75.26
2022-10-08T01:35:44.465Z,75.25
2022-10-08T01:40:48.600Z,75.43
2022-10-08T01:45:57.005Z,75.44
2022-10-08T01:51:04.522Z,75.57
2022-10-08T01:56:10.529Z,75.60
2022-10-08T02:01:16.492Z,75.62
2022-10-08T02:06:20.228Z,75.72
2022-10-08T02:11:23.002Z,75.77
2022-10-08T02:16:29.738Z,75.85
2022-10-08T02:21:32.702Z,75.98
2022-10-08T02:26:40.410Z,76.21
2022-10-08T02:31:47.597Z,76.40
2022-10-08T02:36:55.821Z,76.69
2022-10-08T02:42:01.362Z,76.69
2022-10-08T02:47:08.734Z,76.93
2022-10-08T02:52:11.679Z,76.81
2022-10-08T02:57:17.291Z,76.88
2022-10-08T03:02:27.748Z,76.92
2022-10-08T03:07:31.738Z,76.98
2022-10-08T03:12:35.448Z,77.23
2022-10-08T03:17:42.927Z,77.21
2022-10-08T03:22:45.903Z,77.26
2022-10-08T03:27:51.396Z,77.31
2022-10-08T03:32:55.435Z,77.47
2022-10-08T03:37:58.070Z,77.78
2022-10-08T03:43:00.678Z,77.63
2022-10-08T03:48:04.893Z,77.74
2022-10-08T03:53:07.546Z,77.87
2022-10-08T03:58:10.381Z,77.84
2022-10-08T04:03:14.346Z,78.03
2022-10-08T04:08:17.242Z,78.30
2022-10-08T04:13:20.268Z,78.43
2022-10-08T04:18:24.172Z,78.44
2022-10-08T04:23:30.269Z,78.56
2022-10-08T04:28:38.192Z,78.49
2022-10-08T04:33:42.614Z,78.66
2022-10-08T04:38:45.808Z,79.02
2022-10-08T04:43:48.420Z,79.32
2022-10-08T04:48:53.889Z,79.56
2022-10-08T04:53:57.837Z,80.07
2022-10-08T04:59:00.701Z,80.22
2022-10-08T05:04:04.703Z,80.24
2022-10-08T05:09:07.280Z,80.30
2022-10-08T05:14:10.007Z,80.31
2022-10-08T05:19:14.055Z,80.50
2022-10-08T05:24:16.762Z,80.46
2022-10-08T05:29:19.959Z,80.58
2022-10-08T05:34:24.004Z,80.50
2022-10-08T05:39:27.666Z,80.56
2022-10-08T05:44:32.824Z,80.63
2022-10-08T05:49:38.825Z,80.65
2022-10-08T05:54:41.473Z,80.49
2022-10-08T05:59:44.235Z,80.57
2022-10-08T06:04:49.583Z,80.39
2022-10-08T06:09:52.645Z,80.23
2022-10-08T06:14:55.538Z,80.10
2022-10-08T06:19:59.469Z,80.23
2022-10-08T06:25:02.149Z,79.97
2022-10-08T06:30:05.589Z,80.04
2022-10-08T06:35:10.233Z,79.90
2022-10-08T06:40:12.842Z,79.89
2022-10-08T06:45:15.591Z,79.90
2022-10-08T06:50:19.555Z,79.58
2022-10-08T06:55:22.330Z,79.71
2022-10-08T07:00:24.966Z,79.54
2022-10-08T07:05:28.903Z,79.37
2022-10-08T07:10:33.679Z,79.36
2022-10-08T07:15:36.488Z,79.15
2022-10-08T07:20:40.579Z,78.88
2022-10-08T07:25:43.404Z,79.03
2022-10-08T07:30:46.020Z,78.78
2022-10-08T07:35:50.105Z,78.81
2022-10-08T07:40:54.757Z,78.55
2022-10-08T07:45:57.434Z,78.48
2022-10-08T07:51:09.078Z,78.33
2022-10-08T07:56:13.327Z,77.96
2022-10-08T08:01:20.299Z,77.54
2022-10-08T08:06:25.192Z,77.49
2022-10-08T08:11:27.908Z,77.30
2022-10-08T08:16:30.799Z,77.02
2022-10-08T08:21:36.497Z,76.90
2022-10-08T08:26:40.642Z,76.62
2022-10-08T08:31:45.107Z,76.40
2022-10-08T08:36:51.057Z,75.68
2022-10-08T08:42:01.287Z,75.40
2022-10-08T08:47:07.606Z,74.96
2022-10-08T08:52:14.626Z,74.50
2022-10-08T08:57:27.413Z,74.07
2022-10-08T09:02:33.230Z,73.71
2022-10-08T09:07:42.970Z,73.59
2022-10-08T09:12:45.897Z,73.28
2022-10-08T09:17:52.670Z,72.95
2022-10-08T09:22:57.206Z,72.84
2022-10-08T09:28:04.074Z,72.23
2022-10-08T09:33:26.502Z,71.63
2022-10-08T09:38:34.231Z,70.87
2022-10-08T09:43:37.069Z,70.76
2022-10-08T09:48:41.651Z,70.66
2022-10-08T09:53:48.270Z,70.54
2022-10-08T09:58:52.772Z,70.13
2022-10-08T10:03:57.363Z,69.32
2022-10-08T10:09:07.458Z,69.48
2022-10-08T10:14:21.530Z,68.78
2022-10-08T10:19:27.128Z,67.93
2022-10-08T10:24:39.799Z,66.76
2022-10-08T10:29:50.153Z,65.87
2022-10-08T10:34:59.866Z,65.49
2022-10-08T10:40:15.476Z,65.04
2022-10-08T10:45:21.806Z,64.87
2022-10-08T10:50:28.993Z,65.31
2022-10-08T10:55:38.317Z,65.86
2022-10-08T11:00:46.224Z,65.58
2022-10-08T11:05:52.820Z,65.60
2022-10-08T11:11:06.242Z,65.86
2022-10-08T11:16:19.554Z,67.06
2022-10-08T11:21:34.758Z,67.29
2022-10-08T11:26:42.078Z,67.38
2022-10-08T11:31:46.546Z,67.34
2022-10-08T11:36:55.948Z,67.87
2022-10-08T11:42:06.179Z,68.05
2022-10-08T11:47:36.273Z,68.37
2022-10-08T11:52:38.915Z,68.63
2022-10-08T11:58:06.709Z,68.90
2022-10-08T12:03:07.342Z,69.11
2022-10-08T12:08:10.150Z,69.37
2022-10-08T12:13:32.156Z,69.45
2022-10-08T12:18:52.654Z,69.53
2022-10-08T12:23:55.401Z,69.29
2022-10-08T12:28:59.500Z,69.21
2022-10-08T12:34:04.735Z,69.28
2022-10-08T12:39:12.732Z,69.39
2022-10-08T12:44:27.083Z,68.79
2022-10-08T12:49:34.591Z,68.40
2022-10-08T12:54:38.603Z,68.04
2022-10-08T12:59:42.924Z,67.75
2022-10-08T13:04:47.357Z,67.99
2022-10-08T13:09:55.693Z,68.37
2022-10-08T13:15:05.750Z,68.44
2022-10-08T13:20:15.395Z,68.36
2022-10-08T13:25:36.164Z,68.70
2022-10-08T13:30:40.512Z,68.55
2022-10-08T13:35:43.939Z,68.26
2022-10-08T13:40:50.654Z,68.37
2022-10-08T13:45:54.630Z,67.90
2022-10-08T13:50:57.528Z,66.78
2022-10-08T13:56:00.137Z,67.42
2022-10-08T14:01:04.192Z,67.22
2022-10-08T14:06:07.297Z,66.08
2022-10-08T14:11:10.834Z,66.23
2022-10-08T14:16:14.814Z,66.72
2022-10-08T14:21:17.753Z,67.27
2022-10-08T14:26:20.458Z,68.04
2022-10-08T14:31:24.432Z,68.23
2022-10-08T14:36:31.412Z,68.44
2022-10-08T14:41:34.660Z,69.14
2022-10-08T14:46:38.612Z,69.73
2022-10-08T14:51:41.621Z,69.89
2022-10-08T14:56:44.219Z,69.57
2022-10-08T15:01:48.286Z,69.25
2022-10-08T15:06:50.979Z,67.70
2022-10-08T15:11:53.592Z,61.07
2022-10-08T15:16:57.655Z,55.06
2022-10-08T15:22:00.284Z,50.31
2022-10-08T15:27:02.861Z,46.98
2022-10-08T15:32:06.848Z,47.80
2022-10-08T15:37:09.545Z,51.91
2022-10-08T15:42:12.900Z,60.82
2022-10-08T15:47:16.864Z,68.17
2022-10-08T15:52:22.086Z,70.30
2022-10-08T15:57:24.677Z,70.93
2022-10-08T16:02:28.664Z,71.13
2022-10-08T16:07:31.267Z,71.34
2022-10-08T16:12:33.849Z,71.06
2022-10-08T16:17:37.915Z,70.59
2022-10-08T16:22:40.614Z,70.46
2022-10-08T16:27:43.233Z,70.79
2022-10-08T16:32:47.429Z,70.61
2022-10-08T16:37:52.131Z,70.57
2022-10-08T16:42:55.027Z,70.89
2022-10-08T16:48:00.344Z,70.74
2022-10-08T16:53:03.136Z,70.75
2022-10-08T16:58:06.837Z,70.78
2022-10-08T17:03:10.797Z,71.00
2022-10-08T17:08:13.421Z,70.93
2022-10-08T17:13:16.095Z,70.61
2022-10-08T17:18:20.093Z,71.05
2022-10-08T17:23:22.906Z,71.31
2022-10-08T17:28:28.232Z,71.50
2022-10-08T17:33:35.657Z,71.79
2022-10-08T17:38:40.141Z,71.94
2022-10-08T17:43:43.208Z,72.20
2022-10-08T17:48:47.545Z,72.41
2022-10-08T17:53:53.952Z,72.54
2022-10-08T17:58:56.827Z,72.59
2022-10-08T18:04:02.222Z,72.79
2022-10-08T18:09:06.487Z,72.72
2022-10-08T18:14:09.134Z,72.62
2022-10-08T18:19:13.149Z,72.53
2022-10-08T18:24:16.132Z,72.15
2022-10-08T18:29:18.910Z,71.87
2022-10-08T18:34:23.564Z,71.78
2022-10-08T18:39:28.671Z,71.57
2022-10-08T18:44:31.638Z,71.77
2022-10-08T18:49:36.040Z,72.10
2022-10-08T18:54:38.865Z,72.41
2022-10-08T18:59:41.657Z,72.32
2022-10-08T19:04:45.922Z,71.81
2022-10-08T19:09:48.504Z,71.70
2022-10-08T19:14:51.174Z,71.91
2022-10-08T19:19:55.225Z,72.18
2022-10-08T19:24:57.974Z,72.75
2022-10-08T19:30:00.645Z,73.61
2022-10-08T19:35:05.353Z,74.10
2022-10-08T19:40:08.345Z,74.10
2022-10-08T19:45:12.466Z,74.15
2022-10-08T19:50:16.481Z,74.24
2022-10-08T19:55:19.133Z,74.53
2022-10-08T20:00:21.826Z,74.29
2022-10-08T20:05:25.757Z,73.71
2022-10-08T20:10:28.335Z,73.14
2022-10-08T20:15:30.902Z,72.98
2022-10-08T20:20:34.895Z,73.19
2022-10-08T20:25:37.661Z,73.22
2022-10-08T20:30:41.347Z,73.31
2022-10-08T20:35:45.321Z,73.43
2022-10-08T20:40:47.977Z,73.48
2022-10-08T20:45:50.704Z,73.68
2022-10-08T20:50:54.742Z,73.63
2022-10-08T20:55:57.496Z,73.51
2022-10-08T21:01:05.078Z,73.53
2022-10-08T21:06:09.721Z,73.57
2022-10-08T21:11:14.267Z,73.60
2022-10-08T21:16:19.461Z,73.85
2022-10-08T21:21:23.901Z,73.87
2022-10-08T21:26:28.988Z,73.94
2022-10-08T21:31:32.958Z,73.99
2022-10-08T21:36:39.498Z,74.04
2022-10-08T21:41:42.312Z,74.18
2022-10-08T21:46:45.252Z,74.08
2022-10-08T21:51:49.489Z,74.36
2022-10-08T21:56:52.134Z,74.33
2022-10-08T22:01:54.851Z,74.15
2022-10-08T22:06:59.536Z,74.33
2022-10-08T22:12:03.129Z,74.42
2022-10-08T22:17:05.777Z,74.55
2022-10-08T22:22:09.932Z,74.51
2022-10-08T22:27:12.633Z,74.56
2022-10-08T22:32:15.272Z,74.71
2022-10-08T22:37:19.287Z,74.81
2022-10-08T22:42:22.027Z,74.84
2022-10-08T22:47:25.070Z,74.80
2022-10-08T22:52:29.220Z,74.70
2022-10-08T22:57:31.846Z,74.68
2022-10-08T23:02:34.845Z,74.83
2022-10-08T23:07:38.982Z,75.15
2022-10-08T23:12:41.636Z,74.81
2022-10-08T23:17:44.307Z,75.08
2022-10-08T23:22:48.624Z,74.71
2022-10-08T23:27:51.699Z,74.95
2022-10-08T23:32:54.291Z,74.91
2022-10-08T23:37:58.301Z,75.21
2022-10-08T23:43:00.955Z,75.27
2022-10-08T23:48:03.527Z,75.11
2022-10-08T23:53:07.463Z,75.26
2022-10-08T23:58:10.184Z,75.42
